AirNav   Pilot Hours Calculator
 
 1092 users online  

ND09 Bryn Airport
Dazey, North Dakota, USA

GOING TO DAZEY?


FAA INFORMATION EFFECTIVE 01 DECEMBER 2022

Location

FAA Identifier: ND09
Lat/Long: 47-11-19.1400N 098-09-56.0700W
47-11.319000N 098-09.934500W
47.1886500,-98.1655750
(estimated)
Elevation: 1431 ft. / 436 m (estimated)
Variation: 07E (1985)
From city: 2 miles E of DAZEY, ND
Time zone: UTC -6 (UTC -5 during Daylight Saving Time)
Zip code: 58429

Airport Operations

Airport use: Private use. Permission required prior to landing
Activation date: 12/1949
Control tower: no
ARTCC: MINNEAPOLIS CENTER
FSS: GRAND FORKS FLIGHT SERVICE STATION
Attendance: UNATNDD
Wind indicator: yes
Segmented circle: no

Airport Communications

WX AWOS-3 at S32 (14 nm N): 118.750 (701-797-2566)
WX AWOS-3 at BAC (16 nm S): 118.725 (701-845-9117)

Nearby radio navigation aids

VOR radial/distance  VOR name  Freq  Var
JMSr050/26.0JAMESTOWN VOR/DME114.5004E

Airport Services

Airframe service: NONE
Powerplant service: NONE

Runway Information

Runway E/W

Dimensions: 2500 x 100 ft. / 762 x 30 m
Surface: turf
RUNWAY E  RUNWAY W
Traffic pattern: leftleft

Airport Ownership and Management from official FAA records

Ownership: Privately-owned
Owner: TERRY PETER BRYN
1532 111 AVE S.E.
DAZEY, ND 58429
Phone 701-733-2292
JAMIE BRYN 1125 16TH ST. SE DAZEY ND 701-733-2295 BRYN@ICTC.COM
Manager: TERRY PETER BRYN
1532 111 AVE S.E.
DAZEY, ND 58429
Phone 701-733-2188

Airport Operational Statistics

Aircraft based on the field: 2
Single engine airplanes: 2
    

Additional Remarks

OWNER DESIRES CHARTING.
FOR CD CTC MINNEAPOLIS ARTCC AT 651-463-5588.

Instrument Procedures

There are no published instrument procedures at ND09.

Some nearby airports with instrument procedures:

S32 - Cooperstown Municipal Airport (14 nm N)
KBAC - Barnes County Municipal Airport (16 nm S)
KJMS - Jamestown Regional Airport (26 nm SW)
4V4 - Northwood Municipal Airport-Vince Field (40 nm NE)
46D - Carrington Municipal Airport (43 nm W)
 
Loc | Ops | Rwys | IFR | FBO | Links
Com | Nav | Svcs | Stats | Notes

Bismarck Aero Center
AirBoss

 
Aerial photo
No photo
 
Sectional chart

 
Airport distance calculator
Flying to Bryn Airport? Find the distance to fly.

From to ND09

Sunrise and sunset
Times for 03-Dec-2022
 Local
(UTC-6)
 Zulu
(UTC)
Morning civil twilight07:2713:27
Sunrise08:0214:02
Sunset16:4322:43
Evening civil twilight17:1823:18

Current date and time
Zulu (UTC)  04-Dec-2022 01:17:00
Local (UTC-6)  03-Dec-2022 19:17:00
 
METAR
KS32 
14nm N 
040055Z AUTO 24005KT 10SM CLR M18/M18 A3013 RMK AO2 TSNO
KBAC 
16nm S 
040055Z AUTO 24007KT 10SM CLR M15/M18 A3014 RMK AO2
KJMS 
26nm SW 
040056Z AUTO 25007KT 10SM CLR M13/M17 A3012 RMK AO2 SLP240 T11331172
TAF
KJMS 
26nm SW 
032047Z 0321/0418 23008KT P6SM SKC FM040100 24008KT P6SM SKC FM040500 26010KT P6SM FEW250 WS010/29035KT FM041400 24011G19KT P6SM SKC WS010/28040KT FM041600 25015G24KT P6SM SKC
NOTAMs
Click for the latest NOTAMs
NOTAMs are issued by the DoD/FAA and will open in a separate window not controlled by AirNav.

 

 
 

Would you like to see your business listed on this page?

 If your business provides an interesting product or service to pilots, flight crews, aircraft, or users of the Bryn Airport, you should consider listing it here.  To start the listing process, click on the button below
 
Add a business
 

Other Pages about Bryn Airport

Update a link
 
Copyright © AirNav, LLC. All rights reserved. Privacy Policy  Contact